Time;durP1;ratioP1;P1;durP2;ratioP2;P2;SDS_P1;SDS_P2;PMS_P1;PMS_P2;Temp;Humidity;BMP_temperature;BMP_pressure;BME280_temperature;BME280_humidity;BME280_pressure;Samples;Min_cycle;Max_cycle;Signal;HPM_P1;HPM_P2
2023/07/15 00:02:22;;;;;;;2.70;2.50;;;23.40;92.10;;;;;;5106419;28;20329;-79
2023/07/15 00:04:49;;;;;;;4.22;2.85;;;23.40;92.20;;;;;;5115823;27;20205;-80
2023/07/15 00:07:16;;;;;;;2.60;2.40;;;23.40;92.20;;;;;;5110261;28;20229;-79
2023/07/15 00:09:43;;;;;;;3.10;2.67;;;23.40;92.30;;;;;;5110087;28;20289;-79
2023/07/15 00:12:11;;;;;;;3.10;2.90;;;23.40;92.40;;;;;;5129408;27;20231;-79
2023/07/15 00:14:39;;;;;;;3.40;2.38;;;23.40;92.30;;;;;;5130938;27;20201;-80
2023/07/15 00:17:08;;;;;;;3.40;3.10;;;23.40;92.40;;;;;;5130993;27;20316;-79
2023/07/15 00:19:35;;;;;;;5.38;3.00;;;23.40;92.40;;;;;;5130029;27;20213;-81
2023/07/15 00:22:02;;;;;;;4.95;2.50;;;23.40;92.50;;;;;;5129658;27;20247;-79
2023/07/15 00:24:29;;;;;;;3.88;2.75;;;23.30;92.60;;;;;;5117809;27;20701;-79
2023/07/15 00:26:58;;;;;;;3.25;2.38;;;23.30;92.70;;;;;;5130042;27;21061;-79
2023/07/15 00:29:25;;;;;;;4.80;2.95;;;23.30;93.10;;;;;;5130033;27;20210;-80
2023/07/15 00:31:54;;;;;;;3.58;2.90;;;23.30;92.80;;;;;;5124494;27;20199;-79
2023/07/15 00:34:21;;;;;;;3.25;2.70;;;23.30;92.90;;;;;;5109509;28;20758;-79
2023/07/15 00:36:48;;;;;;;3.63;2.83;;;23.30;93.00;;;;;;5109632;28;20668;-78
2023/07/15 00:39:15;;;;;;;3.35;2.90;;;23.30;93.10;;;;;;5109916;28;20259;-79
2023/07/15 00:41:42;;;;;;;3.88;2.90;;;23.20;93.20;;;;;;5109890;27;20198;-79
2023/07/15 00:44:14;;;;;;;7.03;2.70;;;23.20;93.30;;;;;;5109256;28;20214;-79
2023/07/15 00:47:21;;;;;;;5.13;2.90;;;23.20;93.40;;;;;;5116310;27;20284;-80
2023/07/15 00:49:49;;;;;;;3.13;2.92;;;23.10;93.60;;;;;;5124732;27;20261;-79
2023/07/15 00:52:20;;;;;;;3.85;2.70;;;23.10;93.70;;;;;;5109282;28;20297;-79
2023/07/15 00:54:54;;;;;;;3.22;2.92;;;23.00;93.80;;;;;;5109813;27;20346;-79
2023/07/15 00:57:22;;;;;;;5.57;2.75;;;23.00;93.90;;;;;;5113256;27;20217;-79
2023/07/15 00:59:52;;;;;;;2.65;2.47;;;23.00;94.00;;;;;;5129232;27;20229;-79
2023/07/15 01:02:21;;;;;;;3.35;2.78;;;22.90;94.00;;;;;;5129232;27;20682;-79
2023/07/15 01:04:48;;;;;;;3.35;2.97;;;22.90;94.10;;;;;;5129440;27;20540;-79
2023/07/15 01:07:15;;;;;;;2.88;2.67;;;22.90;94.20;;;;;;5112966;27;20326;-79
2023/07/15 01:09:42;;;;;;;3.05;2.75;;;22.80;94.30;;;;;;5109034;28;20210;-79
2023/07/15 01:12:09;;;;;;;4.10;2.80;;;22.90;94.40;;;;;;5108835;28;20202;-80
2023/07/15 01:14:37;;;;;;;3.63;3.15;;;22.90;94.50;;;;;;5108322;28;20206;-80
2023/07/15 01:17:05;;;;;;;3.45;2.70;;;22.80;94.80;;;;;;5108623;28;20217;-79
2023/07/15 01:19:34;;;;;;;4.43;2.88;;;22.80;94.60;;;;;;5138646;27;20200;-79
2023/07/15 01:22:01;;;;;;;4.47;2.85;;;22.80;94.70;;;;;;5149765;27;20311;-81
2023/07/15 01:24:30;;;;;;;3.05;2.85;;;22.80;94.80;;;;;;5149698;27;20283;-79
2023/07/15 01:26:59;;;;;;;5.18;2.90;;;22.70;94.90;;;;;;5149361;27;20297;-80
2023/07/15 01:29:26;;;;;;;2.75;2.55;;;22.60;95.10;;;;;;5149660;27;20295;-79
2023/07/15 01:31:53;;;;;;;2.90;2.58;;;22.60;95.20;;;;;;5126263;27;20204;-79
2023/07/15 01:34:21;;;;;;;2.95;2.75;;;22.60;95.20;;;;;;5108000;28;20782;-80
2023/07/15 01:36:48;;;;;;;5.38;2.92;;;22.60;95.30;;;;;;5107795;28;20677;-79
2023/07/15 01:39:15;;;;;;;5.82;2.65;;;22.60;95.30;;;;;;5117138;27;20233;-80
2023/07/15 01:41:43;;;;;;;3.30;3.00;;;22.60;95.50;;;;;;5127509;27;20202;-80
2023/07/15 01:44:11;;;;;;;4.60;2.65;;;22.60;95.50;;;;;;5108020;28;20796;-79
2023/07/15 01:46:39;;;;;;;3.03;2.80;;;22.50;95.50;;;;;;5109152;27;20289;-79
2023/07/15 01:49:07;;;;;;;3.13;2.80;;;22.50;95.60;;;;;;5118569;27;20266;-79
2023/07/15 01:51:34;;;;;;;2.80;2.60;;;22.50;95.70;;;;;;5128610;27;20660;-79
2023/07/15 01:54:01;;;;;;;2.85;2.65;;;22.50;96.10;;;;;;5128042;27;20197;-80
2023/07/15 01:56:28;;;;;;;3.38;3.10;;;22.50;95.80;;;;;;5128405;27;20215;-79
2023/07/15 01:58:56;;;;;;;3.67;3.00;;;22.50;95.90;;;;;;5128617;27;20657;-79
2023/07/15 02:01:23;;;;;;;4.10;2.83;;;22.40;96.00;;;;;;5128581;27;20292;-79
2023/07/15 02:03:50;;;;;;;2.85;2.65;;;22.40;96.00;;;;;;5128199;27;20738;-79
2023/07/15 02:06:17;;;;;;;3.88;3.28;;;22.40;96.10;;;;;;5128261;27;20201;-80
2023/07/15 02:08:45;;;;;;;3.38;2.80;;;22.40;96.20;;;;;;5127014;27;20720;-79
2023/07/15 02:11:12;;;;;;;2.95;2.70;;;22.30;96.30;;;;;;5127197;28;20226;-79
2023/07/15 02:13:39;;;;;;;3.00;2.75;;;22.30;96.50;;;;;;5127227;28;20254;-79
2023/07/15 02:16:08;;;;;;;2.90;2.60;;;22.20;96.60;;;;;;5126730;28;20636;-79
2023/07/15 02:18:35;;;;;;;3.33;3.03;;;22.20;96.90;;;;;;5127147;27;20321;-79
2023/07/15 02:21:02;;;;;;;3.80;2.92;;;22.20;96.90;;;;;;5127283;28;20560;-79
2023/07/15 02:23:30;;;;;;;3.25;2.88;;;22.20;97.00;;;;;;5127082;28;20202;-79
2023/07/15 02:25:57;;;;;;;3.17;2.83;;;22.20;97.40;;;;;;5126511;27;20205;-79
2023/07/15 02:28:26;;;;;;;3.83;2.85;;;22.10;97.10;;;;;;5126418;28;20231;-80
2023/07/15 02:30:55;;;;;;;2.92;2.72;;;22.10;97.20;;;;;;5126052;28;20254;-80
2023/07/15 02:33:24;;;;;;;3.08;2.70;;;22.10;97.20;;;;;;5126864;28;20225;-79
2023/07/15 02:35:51;;;;;;;3.42;3.22;;;22.10;97.20;;;;;;5133759;27;20597;-79
2023/07/15 02:38:18;;;;;;;3.80;3.05;;;22.10;97.20;;;;;;5119155;28;20330;-79
2023/07/15 02:40:48;;;;;;;3.45;3.10;;;22.10;97.20;;;;;;5105963;28;20906;-79
2023/07/15 02:43:15;;;;;;;5.05;2.78;;;22.10;97.30;;;;;;5105424;28;20217;-79
2023/07/15 02:45:42;;;;;;;3.30;3.00;;;22.00;97.40;;;;;;5106285;28;20297;-81
2023/07/15 02:48:09;;;;;;;4.38;3.10;;;22.00;97.50;;;;;;5125194;27;20215;-80
2023/07/15 02:50:37;;;;;;;3.42;3.13;;;21.90;97.60;;;;;;5115050;28;20568;-80
2023/07/15 02:53:04;;;;;;;3.28;3.03;;;21.90;97.70;;;;;;5106498;28;20220;-79
2023/07/15 02:55:31;;;;;;;3.38;3.08;;;21.90;97.70;;;;;;5106728;28;20216;-79
2023/07/15 02:57:58;;;;;;;4.82;3.00;;;21.90;97.70;;;;;;5107544;27;20226;-79
2023/07/15 03:00:26;;;;;;;4.57;3.08;;;21.80;97.90;;;;;;5106309;28;20202;-79
2023/07/15 03:02:53;;;;;;;4.35;3.03;;;21.80;97.90;;;;;;5106161;28;20304;-80
2023/07/15 03:05:20;;;;;;;6.75;3.38;;;21.80;98.10;;;;;;5112545;28;20741;-79
2023/07/15 03:07:49;;;;;;;2.97;2.78;;;21.60;98.50;;;;;;5086760;27;1120303;-80
2023/07/15 03:10:18;;;;;;;4.00;3.28;;;21.70;98.60;;;;;;5126886;27;20554;-79
2023/07/15 03:12:45;;;;;;;4.20;3.08;;;21.70;98.30;;;;;;5127176;27;20236;-80
2023/07/15 03:15:12;;;;;;;4.15;3.15;;;21.70;98.40;;;;;;5127418;27;20286;-79
2023/07/15 03:17:39;;;;;;;5.68;2.90;;;21.70;98.40;;;;;;5127463;27;20292;-79
2023/07/15 03:20:14;;;;;;;6.35;3.40;;;21.60;98.50;;;;;;5127322;27;20296;-80
2023/07/15 03:22:41;;;;;;;3.95;2.88;;;21.70;98.50;;;;;;5126956;27;20199;-80
2023/07/15 03:25:10;;;;;;;3.58;3.28;;;21.60;98.50;;;;;;5127319;27;20243;-80
2023/07/15 03:27:37;;;;;;;3.97;3.17;;;21.50;98.60;;;;;;5126838;27;20216;-79
2023/07/15 03:30:07;;;;;;;3.47;2.78;;;21.30;98.90;;;;;;5127383;27;20328;-79
2023/07/15 03:32:34;;;;;;;3.15;2.85;;;21.30;99.10;;;;;;5111067;27;20292;-80
2023/07/15 03:35:03;;;;;;;3.90;3.25;;;21.30;99.20;;;;;;5106083;28;20236;-79
2023/07/15 03:37:30;;;;;;;3.78;3.33;;;21.40;99.20;;;;;;5106395;28;20611;-80
2023/07/15 03:39:57;;;;;;;5.65;2.88;;;21.30;99.20;;;;;;5117866;27;20879;-80
2023/07/15 03:42:26;;;;;;;5.57;3.08;;;21.40;99.20;;;;;;5123555;27;20229;-80
2023/07/15 03:44:53;;;;;;;3.60;3.30;;;21.50;99.30;;;;;;5126266;27;20215;-80
2023/07/15 03:47:20;;;;;;;6.75;3.05;;;21.50;99.20;;;;;;5125927;27;20671;-79
2023/07/15 03:49:47;;;;;;;4.43;2.95;;;21.50;99.20;;;;;;5140605;27;20734;-79
2023/07/15 03:52:14;;;;;;;3.55;3.25;;;21.50;99.30;;;;;;5147388;27;20288;-80
2023/07/15 03:54:41;;;;;;;10.10;3.83;;;21.50;99.40;;;;;;5147610;27;20485;-79
2023/07/15 03:57:08;;;;;;;3.30;3.10;;;21.40;99.70;;;;;;5147344;27;20228;-80
2023/07/15 03:59:36;;;;;;;3.97;3.67;;;21.40;99.60;;;;;;5125403;27;20305;-80
2023/07/15 04:02:04;;;;;;;3.30;3.10;;;21.40;99.60;;;;;;5126255;28;20209;-80
2023/07/15 04:04:31;;;;;;;5.18;3.40;;;21.40;99.80;;;;;;5106658;28;20292;-80
2023/07/15 04:06:59;;;;;;;3.58;3.17;;;21.40;99.90;;;;;;5126315;28;20201;-80
2023/07/15 04:09:26;;;;;;;3.75;3.38;;;21.40;99.90;;;;;;5126544;28;20194;-80
2023/07/15 04:11:53;;;;;;;3.97;3.58;;;21.50;99.90;;;;;;5107464;28;20202;-82
2023/07/15 04:14:19;;;;;;;4.57;3.90;;;21.40;99.90;;;;;;5106036;28;20676;-80
2023/07/15 04:16:48;;;;;;;3.60;3.22;;;21.30;99.90;;;;;;5105724;28;20297;-80
2023/07/15 04:19:15;;;;;;;3.42;3.10;;;21.40;99.90;;;;;;5115633;27;20233;-80
2023/07/15 04:21:42;;;;;;;4.65;3.60;;;21.50;99.90;;;;;;5125908;28;20205;-80
2023/07/15 04:24:09;;;;;;;6.45;3.55;;;21.30;99.90;;;;;;5107293;28;20204;-80
2023/07/15 04:26:35;;;;;;;6.10;2.85;;;21.40;99.90;;;;;;5105909;28;20325;-80
2023/07/15 04:29:01;;;;;;;4.10;3.40;;;21.40;99.90;;;;;;5141780;27;20229;-80
2023/07/15 04:31:28;;;;;;;3.63;3.33;;;21.50;99.90;;;;;;5147192;27;20201;-80
2023/07/15 04:33:57;;;;;;;3.35;3.08;;;21.50;99.90;;;;;;5146805;27;20225;-80
2023/07/15 04:36:24;;;;;;;3.40;3.10;;;21.50;99.90;;;;;;5123238;27;20206;-80
2023/07/15 04:38:50;;;;;;;6.45;3.70;;;21.50;99.90;;;;;;5125968;27;20229;-80
2023/07/15 04:41:17;;;;;;;3.65;3.10;;;21.50;99.90;;;;;;5126408;28;20209;-81
2023/07/15 04:43:44;;;;;;;3.70;3.50;;;21.60;99.90;;;;;;5126384;28;20296;-81
2023/07/15 04:46:11;;;;;;;3.45;3.10;;;21.60;99.90;;;;;;5122317;28;20206;-80
2023/07/15 04:48:39;;;;;;;4.40;3.38;;;21.60;99.90;;;;;;5110086;27;20680;-81
2023/07/15 04:51:08;;;;;;;4.50;3.70;;;21.60;99.90;;;;;;5129329;27;20713;-80
2023/07/15 04:53:35;;;;;;;3.72;3.42;;;21.50;99.90;;;;;;5121847;27;20266;-80
2023/07/15 04:56:02;;;;;;;6.13;3.60;;;21.60;99.90;;;;;;5109955;28;20210;-80
2023/07/15 04:58:29;;;;;;;3.50;3.15;;;21.70;99.90;;;;;;5117674;27;20340;-80
2023/07/15 05:00:57;;;;;;;4.40;3.30;;;21.70;99.90;;;;;;5129872;27;20684;-80
2023/07/15 05:03:24;;;;;;;4.38;3.47;;;21.70;99.90;;;;;;5130200;27;20563;-80
2023/07/15 05:05:51;;;;;;;4.07;3.60;;;21.60;99.90;;;;;;5118903;27;20228;-79
2023/07/15 05:08:22;;;;;;;3.58;3.28;;;21.70;99.90;;;;;;5109439;28;20307;-80
2023/07/15 05:10:49;;;;;;;3.77;3.47;;;21.70;99.90;;;;;;5109722;27;20194;-81
2023/07/15 05:13:16;;;;;;;3.60;3.35;;;21.70;99.90;;;;;;5109670;28;20603;-80
2023/07/15 05:15:44;;;;;;;4.13;3.30;;;21.70;99.90;;;;;;5109146;28;20360;-79
2023/07/15 05:18:11;;;;;;;6.32;3.35;;;21.70;99.90;;;;;;5109975;27;20202;-80
2023/07/15 05:20:38;;;;;;;4.85;2.83;;;21.70;99.90;;;;;;5129752;27;20208;-79
2023/07/15 05:23:06;;;;;;;3.58;3.33;;;21.70;99.90;;;;;;5113745;27;20198;-79
2023/07/15 05:25:34;;;;;;;3.42;3.13;;;21.80;99.90;;;;;;5129049;27;20247;-80
2023/07/15 05:28:01;;;;;;;6.50;3.38;;;21.80;99.90;;;;;;5129171;27;20274;-79
2023/07/15 05:30:28;;;;;;;3.42;3.13;;;21.80;99.90;;;;;;5129109;27;20213;-79
2023/07/15 05:32:55;;;;;;;3.78;2.83;;;21.90;99.90;;;;;;5113113;27;20236;-80
2023/07/15 05:35:23;;;;;;;3.85;3.45;;;21.90;99.90;;;;;;5114696;27;20313;-79
2023/07/15 05:37:50;;;;;;;3.47;3.17;;;22.00;99.90;;;;;;5132856;27;20202;-80
2023/07/15 05:40:17;;;;;;;4.40;3.00;;;22.00;99.90;;;;;;5129250;27;20237;-80
2023/07/15 05:42:46;;;;;;;3.70;3.38;;;22.00;99.90;;;;;;5129511;27;20305;-79
2023/07/15 05:45:14;;;;;;;4.57;3.22;;;22.10;99.90;;;;;;5127400;27;20834;-79
2023/07/15 05:47:41;;;;;;;4.40;3.03;;;22.10;99.90;;;;;;5108322;27;20289;-80
2023/07/15 05:50:09;;;;;;;4.13;3.15;;;22.10;99.90;;;;;;5118057;27;20233;-81
2023/07/15 05:52:36;;;;;;;3.75;3.28;;;22.10;99.90;;;;;;5108308;28;20569;-80
2023/07/15 05:55:04;;;;;;;4.88;2.92;;;22.10;99.90;;;;;;5108190;28;20292;-80
2023/07/15 05:57:31;;;;;;;6.03;2.90;;;22.10;99.90;;;;;;5108441;27;20217;-80
2023/07/15 06:00:00;;;;;;;4.22;2.90;;;22.20;99.90;;;;;;5108044;28;20298;-80
2023/07/15 06:02:27;;;;;;;3.63;2.90;;;22.20;99.90;;;;;;5106791;28;20209;-80
2023/07/15 06:04:54;;;;;;;3.53;3.20;;;22.30;99.90;;;;;;5107961;28;20246;-80
2023/07/15 06:07:21;;;;;;;3.10;2.90;;;22.30;99.90;;;;;;5107930;28;20242;-80
2023/07/15 06:09:51;;;;;;;4.07;2.90;;;22.30;99.90;;;;;;5108990;27;20205;-81
2023/07/15 06:12:18;;;;;;;3.28;2.92;;;22.30;99.90;;;;;;5108352;28;20213;-79
2023/07/15 06:14:45;;;;;;;3.45;2.85;;;22.30;99.90;;;;;;5107993;28;20205;-80
2023/07/15 06:17:13;;;;;;;3.45;3.10;;;22.40;99.90;;;;;;5108271;28;20202;-80
2023/07/15 06:19:40;;;;;;;3.30;3.10;;;22.40;99.90;;;;;;5121065;27;20237;-79
2023/07/15 06:22:08;;;;;;;2.95;2.75;;;22.50;99.90;;;;;;5120961;27;20202;-80
2023/07/15 06:24:35;;;;;;;4.28;3.00;;;22.50;99.90;;;;;;5108896;27;20216;-80
2023/07/15 06:27:01;;;;;;;4.50;3.15;;;22.50;99.90;;;;;;5107712;28;20684;-80
2023/07/15 06:29:29;;;;;;;3.33;3.05;;;22.50;99.90;;;;;;5107562;28;20292;-80
2023/07/15 06:31:56;;;;;;;4.85;3.20;;;22.60;99.90;;;;;;5116150;27;20375;-79
2023/07/15 06:34:24;;;;;;;4.03;2.90;;;22.60;99.90;;;;;;5127849;27;20787;-79
2023/07/15 06:36:51;;;;;;;3.53;2.72;;;22.60;99.90;;;;;;5110882;27;20208;-80
2023/07/15 06:39:18;;;;;;;3.20;2.90;;;22.60;99.90;;;;;;5107278;28;20345;-81
2023/07/15 06:41:45;;;;;;;3.85;2.90;;;22.70;99.90;;;;;;5107568;28;20236;-80
2023/07/15 06:44:11;;;;;;;3.20;3.00;;;22.70;99.90;;;;;;5107004;28;20206;-79
2023/07/15 06:46:39;;;;;;;3.65;2.85;;;22.80;99.90;;;;;;5115089;27;20364;-80
2023/07/15 06:49:06;;;;;;;4.35;3.67;;;22.80;99.90;;;;;;5121390;27;20210;-80
2023/07/15 06:51:34;;;;;;;6.07;2.80;;;22.80;99.70;;;;;;5112968;27;20308;-79
2023/07/15 06:54:01;;;;;;;4.10;3.05;;;22.80;99.60;;;;;;5106984;28;20301;-79
2023/07/15 06:56:28;;;;;;;3.45;3.15;;;22.90;99.60;;;;;;5106925;28;20217;-79
2023/07/15 06:58:55;;;;;;;3.28;3.08;;;22.90;99.70;;;;;;5106737;28;20297;-79
2023/07/15 07:01:22;;;;;;;3.05;2.72;;;22.90;99.60;;;;;;5107205;27;20885;-80
2023/07/15 07:03:49;;;;;;;3.30;3.00;;;23.00;99.60;;;;;;5106937;28;20249;-79
2023/07/15 07:06:16;;;;;;;3.28;3.08;;;23.10;99.80;;;;;;5106889;28;20756;-79
2023/07/15 07:08:44;;;;;;;4.40;3.30;;;23.10;99.90;;;;;;5106578;28;20265;-80
2023/07/15 07:11:11;;;;;;;3.28;2.95;;;23.10;99.60;;;;;;5106821;27;20201;-80
2023/07/15 07:13:38;;;;;;;2.85;2.65;;;23.20;99.50;;;;;;5106022;28;20296;-80
2023/07/15 07:16:05;;;;;;;4.95;2.95;;;23.20;99.50;;;;;;5109938;27;20292;-80
2023/07/15 07:18:32;;;;;;;3.42;3.17;;;23.20;99.60;;;;;;5127250;27;20254;-79
2023/07/15 07:20:59;;;;;;;3.40;3.10;;;23.30;99.70;;;;;;5127173;27;20229;-79
2023/07/15 07:23:26;;;;;;;2.83;2.67;;;23.30;99.70;;;;;;5114715;27;20202;-79
2023/07/15 07:25:54;;;;;;;3.28;2.90;;;23.30;99.70;;;;;;5126326;27;20209;-80
2023/07/15 07:28:23;;;;;;;3.70;2.85;;;23.30;99.70;;;;;;5127026;27;20315;-79
2023/07/15 07:30:50;;;;;;;5.50;3.05;;;23.40;99.30;;;;;;5109907;27;20206;-79
2023/07/15 07:33:18;;;;;;;4.60;2.90;;;23.40;99.30;;;;;;5106968;28;20222;-80
2023/07/15 07:35:47;;;;;;;3.47;3.20;;;23.40;99.40;;;;;;5106651;28;20290;-79
2023/07/15 07:38:14;;;;;;;3.67;3.03;;;23.40;99.60;;;;;;5107147;28;20384;-80
2023/07/15 07:40:46;;;;;;;2.72;2.53;;;23.50;99.90;;;;;;5106618;28;20632;-80
2023/07/15 07:43:14;;;;;;;4.82;2.83;;;23.60;99.90;;;;;;5107406;28;20233;-80
2023/07/15 07:45:41;;;;;;;3.20;2.90;;;23.60;99.90;;;;;;5121552;27;20280;-79
2023/07/15 07:48:08;;;;;;;3.15;2.65;;;23.60;99.70;;;;;;5126459;27;20197;-79
2023/07/15 07:50:36;;;;;;;7.38;3.20;;;23.70;99.80;;;;;;5106488;28;20269;-79
2023/07/15 07:53:03;;;;;;;3.95;3.05;;;23.70;99.90;;;;;;5105791;28;20301;-79
2023/07/15 07:55:29;;;;;;;3.17;2.97;;;23.70;99.90;;;;;;5105727;28;20216;-79
2023/07/15 07:57:56;;;;;;;3.35;2.65;;;23.70;99.90;;;;;;5106225;28;20233;-79
2023/07/15 08:00:24;;;;;;;3.35;2.90;;;23.80;99.90;;;;;;5106487;28;20712;-79
2023/07/15 08:02:51;;;;;;;3.13;2.83;;;23.80;99.90;;;;;;5123270;28;20205;-79
2023/07/15 08:05:18;;;;;;;3.05;2.75;;;23.80;99.90;;;;;;5126219;28;20212;-80
2023/07/15 08:07:45;;;;;;;3.15;2.90;;;23.80;99.90;;;;;;5126288;28;20636;-80
2023/07/15 08:10:12;;;;;;;2.70;2.50;;;23.90;99.90;;;;;;5126201;28;20201;-79
2023/07/15 08:12:39;;;;;;;3.13;2.90;;;24.00;99.90;;;;;;5124533;27;20220;-80
2023/07/15 08:15:06;;;;;;;2.80;2.60;;;24.00;99.80;;;;;;5127143;28;20637;-80
2023/07/15 08:17:35;;;;;;;3.58;2.90;;;24.00;99.90;;;;;;5126714;28;20249;-80
2023/07/15 08:20:02;;;;;;;3.17;2.90;;;24.10;99.90;;;;;;5141277;27;20828;-79
2023/07/15 08:22:29;;;;;;;2.92;2.67;;;24.10;99.50;;;;;;5125313;27;20209;-79
2023/07/15 08:24:55;;;;;;;3.30;3.08;;;24.20;99.70;;;;;;5108266;28;20214;-79
2023/07/15 08:27:22;;;;;;;3.83;2.92;;;24.30;99.90;;;;;;5109831;28;20569;-79
2023/07/15 08:29:49;;;;;;;3.00;2.80;;;24.30;99.70;;;;;;5109820;28;20740;-79
2023/07/15 08:32:16;;;;;;;3.30;3.00;;;24.40;99.90;;;;;;5119012;27;20602;-80
2023/07/15 08:35:00;;;;;;;3.47;3.10;;;24.60;99.90;;;;;;5130312;27;20643;-79
2023/07/15 09:58:24;;;;;;;5.60;2.70;;;26.80;98.00;;;;;;5107061;27;20244;-79
2023/07/15 10:00:53;;;;;;;3.92;2.80;;;26.80;97.50;;;;;;5128313;27;20272;-78
2023/07/15 10:03:24;;;;;;;3.30;2.75;;;26.90;97.60;;;;;;5128703;27;20213;-78
2023/07/15 10:05:52;;;;;;;2.55;2.20;;;26.90;98.00;;;;;;5128148;27;20671;-78
2023/07/15 10:08:19;;;;;;;2.85;2.65;;;27.00;98.20;;;;;;5128092;27;20206;-79
2023/07/15 10:10:47;;;;;;;2.88;2.67;;;27.00;97.40;;;;;;5128511;27;20245;-79
2023/07/15 10:13:15;;;;;;;3.13;2.60;;;27.20;96.70;;;;;;5120829;27;20212;-80
2023/07/15 10:15:45;;;;;;;3.50;2.47;;;27.20;96.90;;;;;;5121015;27;20209;-79
2023/07/15 10:18:14;;;;;;;2.97;2.78;;;27.30;96.50;;;;;;5117312;27;20289;-79
2023/07/15 10:20:43;;;;;;;4.40;2.53;;;27.30;96.80;;;;;;5128080;27;20237;-79
2023/07/15 10:23:11;;;;;;;2.58;2.47;;;27.60;96.00;;;;;;5128385;27;20229;-78
2023/07/15 10:25:41;;;;;;;2.83;2.35;;;27.70;96.00;;;;;;5127810;27;20209;-79
2023/07/15 10:28:13;;;;;;;3.15;2.58;;;27.80;96.00;;;;;;5115739;27;20644;-79
2023/07/15 10:30:40;;;;;;;7.93;2.45;;;27.70;96.30;;;;;;5107536;28;20288;-79
2023/07/15 10:33:24;;;;;;;5.68;2.67;;;27.90;96.70;;;;;;5107452;28;20310;-79
2023/07/15 10:35:53;;;;;;;3.47;2.20;;;27.90;96.70;;;;;;5107466;28;20194;-78
2023/07/15 10:38:25;;;;;;;2.50;2.30;;;28.00;95.80;;;;;;5119685;27;20386;-79
2023/07/15 10:40:53;;;;;;;3.38;2.28;;;28.10;95.90;;;;;;5128032;27;20711;-79
2023/07/15 10:43:21;;;;;;;2.67;2.47;;;28.10;95.10;;;;;;5127866;27;20292;-79
2023/07/15 10:45:53;;;;;;;2.22;2.13;;;28.30;95.50;;;;;;5127918;27;20201;-78
2023/07/15 10:48:23;;;;;;;6.75;2.42;;;28.30;95.10;;;;;;5122404;27;20200;-79
2023/07/15 10:50:52;;;;;;;3.25;2.10;;;28.40;94.70;;;;;;5114147;27;20293;-79
2023/07/15 10:53:21;;;;;;;2.50;2.33;;;28.60;94.60;;;;;;5106643;28;20205;-79
2023/07/15 10:55:55;;;;;;;3.67;2.10;;;28.70;94.60;;;;;;5107015;28;20208;-78
2023/07/15 10:58:22;;;;;;;2.60;2.42;;;28.90;94.40;;;;;;5106494;28;20230;-78
2023/07/15 11:00:49;;;;;;;2.45;2.25;;;29.00;94.50;;;;;;5108197;27;20241;-79
2023/07/15 11:03:17;;;;;;;3.15;2.15;;;29.10;94.60;;;;;;5127517;27;20202;-79
2023/07/15 11:05:45;;;;;;;2.70;2.50;;;29.20;94.10;;;;;;5127460;27;20296;-79
2023/07/15 11:08:12;;;;;;;2.85;2.08;;;29.30;94.50;;;;;;5115313;27;20202;-78
2023/07/15 11:10:39;;;;;;;3.42;2.13;;;29.50;92.50;;;;;;5106398;27;20217;-79
2023/07/15 11:13:13;;;;;;;2.03;1.92;;;29.80;92.00;;;;;;5107222;28;20677;-79
2023/07/15 11:15:40;;;;;;;3.70;2.20;;;29.90;90.70;;;;;;5107362;28;20209;-79
2023/07/15 11:18:14;;;;;;;2.28;2.10;;;30.20;90.80;;;;;;5116632;27;20687;-79
2023/07/15 11:20:41;;;;;;;5.07;2.28;;;30.20;89.80;;;;;;5139652;27;20223;-79
2023/07/15 11:23:09;;;;;;;2.45;2.30;;;30.30;91.30;;;;;;5127840;27;20647;-78
2023/07/15 11:25:37;;;;;;;1.88;1.73;;;30.50;91.10;;;;;;5127909;27;20284;-79
2023/07/15 11:28:04;;;;;;;2.08;1.92;;;30.60;90.80;;;;;;5127036;27;20598;-79
2023/07/15 11:30:35;;;;;;;3.05;2.42;;;30.60;90.40;;;;;;5127735;27;20240;-78
2023/07/15 11:33:02;;;;;;;2.40;2.30;;;30.70;91.30;;;;;;5127714;27;20200;-79
2023/07/15 11:35:32;;;;;;;2.80;2.00;;;30.90;90.00;;;;;;5127101;27;20205;-78
2023/07/15 11:37:58;;;;;;;2.78;2.10;;;30.90;91.00;;;;;;5126990;27;20578;-79
2023/07/15 11:40:27;;;;;;;3.05;2.40;;;31.00;90.20;;;;;;5126735;27;20270;-78
2023/07/15 11:42:57;;;;;;;2.65;2.53;;;31.10;88.60;;;;;;5126587;27;20215;-80
2023/07/15 11:45:24;;;;;;;3.00;2.13;;;31.30;88.30;;;;;;5126617;27;20219;-79
2023/07/15 11:47:54;;;;;;;2.50;2.30;;;31.40;89.50;;;;;;5125999;27;20209;-79
2023/07/15 11:50:27;;;;;;;3.65;2.20;;;31.60;88.30;;;;;;5127064;27;20208;-79
2023/07/15 11:52:55;;;;;;;3.40;2.00;;;31.80;85.50;;;;;;5126463;27;20189;-79
2023/07/15 11:55:27;;;;;;;2.60;2.10;;;31.90;88.20;;;;;;5126832;28;20320;-79
2023/07/15 11:57:56;;;;;;;3.13;2.17;;;32.10;85.90;;;;;;5125537;28;20233;-79
2023/07/15 12:00:28;;;;;;;3.67;2.10;;;32.20;87.70;;;;;;5130073;27;20233;-79
2023/07/15 12:02:55;;;;;;;2.40;2.28;;;32.40;87.10;;;;;;5129895;27;20292;-78
2023/07/15 12:05:22;;;;;;;1.90;1.80;;;32.50;84.20;;;;;;5125651;27;20376;-79
2023/07/15 12:07:50;;;;;;;1.90;1.80;;;32.70;85.20;;;;;;5117837;27;20289;-78
2023/07/15 12:10:18;;;;;;;1.70;1.60;;;32.70;83.10;;;;;;5111545;27;20210;-78
2023/07/15 12:12:46;;;;;;;2.95;1.85;;;32.80;85.90;;;;;;5109508;28;20214;-78
2023/07/15 12:15:16;;;;;;;2.08;1.80;;;33.00;86.80;;;;;;5110088;28;20208;-78
2023/07/15 12:17:43;;;;;;;3.17;1.98;;;33.10;82.60;;;;;;5123218;27;20660;-79
2023/07/15 12:20:11;;;;;;;2.15;2.05;;;33.10;80.80;;;;;;5147556;27;20205;-78
2023/07/15 12:22:39;;;;;;;1.92;1.83;;;33.20;83.10;;;;;;5150504;27;20232;-79
2023/07/15 12:25:07;;;;;;;1.90;1.80;;;33.30;85.30;;;;;;5150760;27;20303;-79
2023/07/15 12:27:34;;;;;;;2.40;2.20;;;33.40;82.90;;;;;;5147316;27;20197;-79
2023/07/15 12:30:03;;;;;;;3.03;1.80;;;33.70;82.40;;;;;;5130409;27;20324;-78
2023/07/15 12:32:30;;;;;;;2.40;1.80;;;33.80;81.90;;;;;;5130361;27;20221;-79
2023/07/15 12:34:57;;;;;;;3.03;2.30;;;33.90;83.80;;;;;;5130189;27;20316;-78
2023/07/15 12:37:24;;;;;;;2.05;1.60;;;34.00;82.90;;;;;;5114928;27;20289;-79
2023/07/15 12:39:50;;;;;;;2.38;2.17;;;34.10;81.20;;;;;;5109145;28;20296;-78
2023/07/15 12:42:17;;;;;;;1.92;1.83;;;34.10;78.50;;;;;;5109073;28;20332;-79
2023/07/15 12:44:44;;;;;;;3.90;1.88;;;34.10;79.40;;;;;;5109399;28;20325;-78
2023/07/15 12:47:12;;;;;;;3.25;1.98;;;34.20;82.10;;;;;;5109146;28;20325;-78
2023/07/15 12:49:39;;;;;;;3.60;1.80;;;34.40;82.20;;;;;;5138073;27;20212;-78
2023/07/15 12:52:06;;;;;;;2.25;1.80;;;34.40;80.00;;;;;;5129738;27;20201;-78
2023/07/15 12:54:34;;;;;;;2.15;1.73;;;34.40;77.90;;;;;;5141244;27;20497;-78
2023/07/15 12:57:01;;;;;;;2.08;1.98;;;34.40;77.30;;;;;;5149867;27;20299;-78
2023/07/15 12:59:28;;;;;;;1.95;1.73;;;34.40;75.40;;;;;;5113695;27;20773;-78
2023/07/15 13:01:55;;;;;;;1.67;1.58;;;34.30;75.60;;;;;;5108876;28;20234;-78
2023/07/15 13:04:23;;;;;;;2.35;2.08;;;34.10;79.20;;;;;;5109582;27;20642;-78
2023/07/15 13:06:50;;;;;;;3.03;1.60;;;33.90;76.30;;;;;;5119464;27;20211;-79
2023/07/15 13:09:17;;;;;;;1.70;1.60;;;33.80;75.90;;;;;;5123672;27;20627;-78
2023/07/15 13:11:44;;;;;;;2.25;1.80;;;33.50;76.60;;;;;;5114552;27;20292;-78
2023/07/15 13:14:11;;;;;;;1.52;1.52;;;33.30;77.70;;;;;;5129610;27;20211;-78
2023/07/15 13:16:38;;;;;;;4.45;1.90;;;33.30;80.20;;;;;;5129009;27;20309;-80
2023/07/15 13:19:04;;;;;;;1.90;1.70;;;33.30;80.70;;;;;;5122969;27;20241;-79
2023/07/15 13:21:33;;;;;;;3.83;1.58;;;33.40;78.80;;;;;;5128965;27;20332;-79
2023/07/15 13:23:59;;;;;;;2.05;1.85;;;33.30;77.00;;;;;;5129230;27;20202;-79
2023/07/15 13:26:26;;;;;;;2.38;1.80;;;33.20;77.60;;;;;;5129123;27;20241;-78
2023/07/15 13:28:53;;;;;;;2.33;1.90;;;33.20;77.30;;;;;;5116473;27;20285;-79
2023/07/15 13:31:20;;;;;;;2.05;1.50;;;33.30;73.80;;;;;;5110924;27;20278;-78
2023/07/15 13:33:48;;;;;;;2.63;1.75;;;33.30;74.40;;;;;;5128792;27;20298;-78
2023/07/15 13:36:15;;;;;;;3.65;1.98;;;33.30;77.20;;;;;;5128331;27;20838;-78
2023/07/15 13:38:45;;;;;;;9.32;2.40;;;33.30;78.40;;;;;;5128101;27;20288;-78
2023/07/15 13:41:12;;;;;;;2.05;1.95;;;33.30;80.70;;;;;;5128970;27;20218;-78
2023/07/15 13:43:39;;;;;;;3.00;2.08;;;33.40;82.60;;;;;;5115571;27;20214;-79
2023/07/15 13:46:06;;;;;;;3.92;1.73;;;33.30;80.40;;;;;;5108266;28;20255;-78
2023/07/15 13:48:33;;;;;;;3.63;1.70;;;33.20;78.30;;;;;;5120033;27;20209;-78
2023/07/15 13:50:59;;;;;;;1.90;1.63;;;33.00;77.00;;;;;;5133879;27;20295;-79
2023/07/15 13:53:26;;;;;;;1.90;1.80;;;32.80;76.50;;;;;;5128473;27;20205;-78
2023/07/15 13:55:55;;;;;;;2.40;1.83;;;32.70;76.50;;;;;;5128394;27;20635;-78
2023/07/15 13:58:21;;;;;;;1.88;1.77;;;32.50;78.20;;;;;;5120019;27;20341;-79
2023/07/15 14:00:49;;;;;;;1.90;1.67;;;32.30;78.30;;;;;;5107636;28;20305;-78
2023/07/15 14:03:16;;;;;;;2.13;1.90;;;32.20;77.00;;;;;;5108093;28;20202;-78
2023/07/15 14:05:42;;;;;;;2.40;1.70;;;32.10;77.50;;;;;;5107882;28;20305;-78
2023/07/15 14:08:09;;;;;;;2.50;2.28;;;32.00;78.30;;;;;;5108349;27;20198;-78
2023/07/15 14:10:36;;;;;;;2.00;1.90;;;31.90;80.10;;;;;;5107428;28;20687;-78